sensor_id;sensor_type;location;lat;lon;timestamp;P1;durP1;ratioP1;P2;durP2;ratioP2
12467;SDS011;57850;52.922;6.256;2023-06-22T00:00:49;14.05;;;12.25;;
12467;SDS011;57850;52.922;6.256;2023-06-22T00:03:17;17.92;;;12.43;;
12467;SDS011;57850;52.922;6.256;2023-06-22T00:05:44;14.48;;;12.82;;
12467;SDS011;57850;52.922;6.256;2023-06-22T00:08:11;16.25;;;12.43;;
12467;SDS011;57850;52.922;6.256;2023-06-22T00:10:39;14.73;;;11.75;;
12467;SDS011;57850;52.922;6.256;2023-06-22T00:13:06;14.45;;;12.85;;
12467;SDS011;57850;52.922;6.256;2023-06-22T00:15:33;16.35;;;12.38;;
12467;SDS011;57850;52.922;6.256;2023-06-22T00:18:00;13.05;;;11.60;;
12467;SDS011;57850;52.922;6.256;2023-06-22T00:20:27;10.85;;;9.68;;
12467;SDS011;57850;52.922;6.256;2023-06-22T00:22:55;10.75;;;9.55;;
12467;SDS011;57850;52.922;6.256;2023-06-22T00:25:22;11.30;;;10.07;;
12467;SDS011;57850;52.922;6.256;2023-06-22T00:27:50;13.52;;;10.73;;
12467;SDS011;57850;52.922;6.256;2023-06-22T00:30:17;12.68;;;10.85;;
12467;SDS011;57850;52.922;6.256;2023-06-22T00:32:45;12.63;;;10.65;;
12467;SDS011;57850;52.922;6.256;2023-06-22T00:35:12;13.30;;;11.55;;
12467;SDS011;57850;52.922;6.256;2023-06-22T00:37:38;13.00;;;10.93;;
12467;SDS011;57850;52.922;6.256;2023-06-22T00:40:07;11.50;;;10.07;;
12467;SDS011;57850;52.922;6.256;2023-06-22T00:42:36;12.45;;;11.15;;
12467;SDS011;57850;52.922;6.256;2023-06-22T00:45:04;12.57;;;11.23;;
12467;SDS011;57850;52.922;6.256;2023-06-22T00:47:32;12.02;;;10.75;;
12467;SDS011;57850;52.922;6.256;2023-06-22T00:50:00;12.63;;;11.30;;
12467;SDS011;57850;52.922;6.256;2023-06-22T00:52:27;13.68;;;12.10;;
12467;SDS011;57850;52.922;6.256;2023-06-22T00:54:56;12.48;;;11.20;;
12467;SDS011;57850;52.922;6.256;2023-06-22T00:57:23;16.73;;;11.93;;
12467;SDS011;57850;52.922;6.256;2023-06-22T00:59:53;13.20;;;10.43;;
12467;SDS011;57850;52.922;6.256;2023-06-22T01:02:21;7.63;;;6.88;;
12467;SDS011;57850;52.922;6.256;2023-06-22T01:04:48;8.23;;;7.20;;
12467;SDS011;57850;52.922;6.256;2023-06-22T01:07:17;10.50;;;9.40;;
12467;SDS011;57850;52.922;6.256;2023-06-22T01:09:52;13.40;;;12.00;;
12467;SDS011;57850;52.922;6.256;2023-06-22T01:12:23;13.10;;;11.73;;
12467;SDS011;57850;52.922;6.256;2023-06-22T01:14:54;11.85;;;10.60;;
12467;SDS011;57850;52.922;6.256;2023-06-22T01:17:26;14.60;;;13.20;;
12467;SDS011;57850;52.922;6.256;2023-06-22T01:19:54;16.20;;;13.85;;
12467;SDS011;57850;52.922;6.256;2023-06-22T01:22:23;12.02;;;10.82;;
12467;SDS011;57850;52.922;6.256;2023-06-22T01:24:55;12.48;;;10.82;;
12467;SDS011;57850;52.922;6.256;2023-06-22T01:27:39;18.27;;;14.13;;
12467;SDS011;57850;52.922;6.256;2023-06-22T01:30:15;15.68;;;14.05;;
12467;SDS011;57850;52.922;6.256;2023-06-22T01:32:43;15.57;;;13.80;;
12467;SDS011;57850;52.922;6.256;2023-06-22T01:35:10;19.08;;;13.75;;
12467;SDS011;57850;52.922;6.256;2023-06-22T01:37:38;14.35;;;12.02;;
12467;SDS011;57850;52.922;6.256;2023-06-22T01:40:05;12.05;;;10.77;;
12467;SDS011;57850;52.922;6.256;2023-06-22T01:42:34;18.85;;;14.98;;
12467;SDS011;57850;52.922;6.256;2023-06-22T01:45:03;14.30;;;12.70;;
12467;SDS011;57850;52.922;6.256;2023-06-22T01:47:32;15.68;;;12.95;;
12467;SDS011;57850;52.922;6.256;2023-06-22T01:49:59;18.13;;;12.30;;
12467;SDS011;57850;52.922;6.256;2023-06-22T01:52:27;15.73;;;12.38;;
12467;SDS011;57850;52.922;6.256;2023-06-22T01:54:53;15.48;;;13.43;;
12467;SDS011;57850;52.922;6.256;2023-06-22T01:57:22;13.35;;;11.10;;
12467;SDS011;57850;52.922;6.256;2023-06-22T01:59:51;12.43;;;10.02;;
12467;SDS011;57850;52.922;6.256;2023-06-22T02:02:23;13.85;;;10.80;;
12467;SDS011;57850;52.922;6.256;2023-06-22T02:04:56;13.10;;;11.00;;
12467;SDS011;57850;52.922;6.256;2023-06-22T02:07:27;12.68;;;11.45;;
12467;SDS011;57850;52.922;6.256;2023-06-22T02:09:58;13.65;;;11.98;;
12467;SDS011;57850;52.922;6.256;2023-06-22T02:12:27;14.45;;;12.13;;
12467;SDS011;57850;52.922;6.256;2023-06-22T02:14:56;12.73;;;11.43;;
12467;SDS011;57850;52.922;6.256;2023-06-22T02:17:26;16.63;;;14.13;;
12467;SDS011;57850;52.922;6.256;2023-06-22T02:19:52;18.27;;;14.88;;
12467;SDS011;57850;52.922;6.256;2023-06-22T02:22:20;16.88;;;14.70;;
12467;SDS011;57850;52.922;6.256;2023-06-22T02:24:47;17.27;;;14.35;;
12467;SDS011;57850;52.922;6.256;2023-06-22T02:27:13;16.90;;;13.13;;
12467;SDS011;57850;52.922;6.256;2023-06-22T02:29:40;18.95;;;15.20;;
12467;SDS011;57850;52.922;6.256;2023-06-22T02:32:07;16.40;;;14.30;;
12467;SDS011;57850;52.922;6.256;2023-06-22T02:34:33;18.13;;;15.27;;
12467;SDS011;57850;52.922;6.256;2023-06-22T02:37:01;14.50;;;12.90;;
12467;SDS011;57850;52.922;6.256;2023-06-22T02:39:29;14.70;;;13.20;;
12467;SDS011;57850;52.922;6.256;2023-06-22T02:41:56;14.32;;;12.85;;
12467;SDS011;57850;52.922;6.256;2023-06-22T02:44:23;13.45;;;11.77;;
12467;SDS011;57850;52.922;6.256;2023-06-22T02:46:49;15.65;;;13.98;;
12467;SDS011;57850;52.922;6.256;2023-06-22T02:49:16;14.00;;;12.50;;
12467;SDS011;57850;52.922;6.256;2023-06-22T02:51:45;13.88;;;12.43;;
12467;SDS011;57850;52.922;6.256;2023-06-22T02:54:13;12.45;;;10.50;;
12467;SDS011;57850;52.922;6.256;2023-06-22T02:56:40;13.50;;;10.77;;
12467;SDS011;57850;52.922;6.256;2023-06-22T02:59:09;14.32;;;12.77;;
12467;SDS011;57850;52.922;6.256;2023-06-22T03:01:36;13.75;;;11.77;;
12467;SDS011;57850;52.922;6.256;2023-06-22T03:04:05;12.45;;;11.15;;
12467;SDS011;57850;52.922;6.256;2023-06-22T03:06:32;10.57;;;9.45;;
12467;SDS011;57850;52.922;6.256;2023-06-22T03:08:59;18.17;;;12.32;;
12467;SDS011;57850;52.922;6.256;2023-06-22T03:11:29;17.15;;;13.38;;
12467;SDS011;57850;52.922;6.256;2023-06-22T03:13:57;19.08;;;14.27;;
12467;SDS011;57850;52.922;6.256;2023-06-22T03:16:23;17.33;;;14.77;;
12467;SDS011;57850;52.922;6.256;2023-06-22T03:18:50;15.75;;;14.05;;
12467;SDS011;57850;52.922;6.256;2023-06-22T03:21:18;17.17;;;14.93;;
12467;SDS011;57850;52.922;6.256;2023-06-22T03:23:45;18.08;;;16.17;;
12467;SDS011;57850;52.922;6.256;2023-06-22T03:26:11;18.55;;;15.80;;
12467;SDS011;57850;52.922;6.256;2023-06-22T03:28:38;15.70;;;13.98;;
12467;SDS011;57850;52.922;6.256;2023-06-22T03:31:05;19.80;;;16.67;;
12467;SDS011;57850;52.922;6.256;2023-06-22T03:33:32;17.27;;;15.52;;
12467;SDS011;57850;52.922;6.256;2023-06-22T03:35:59;16.88;;;15.20;;
12467;SDS011;57850;52.922;6.256;2023-06-22T03:38:25;17.30;;;15.60;;
12467;SDS011;57850;52.922;6.256;2023-06-22T03:40:52;17.90;;;16.00;;
12467;SDS011;57850;52.922;6.256;2023-06-22T03:43:18;22.67;;;17.10;;
12467;SDS011;57850;52.922;6.256;2023-06-22T03:45:45;19.08;;;17.05;;
12467;SDS011;57850;52.922;6.256;2023-06-22T03:48:13;16.15;;;14.57;;
12467;SDS011;57850;52.922;6.256;2023-06-22T03:50:39;17.90;;;15.98;;
12467;SDS011;57850;52.922;6.256;2023-06-22T03:53:06;16.55;;;15.05;;
12467;SDS011;57850;52.922;6.256;2023-06-22T03:55:33;17.55;;;15.77;;
12467;SDS011;57850;52.922;6.256;2023-06-22T03:58:00;17.23;;;15.52;;
12467;SDS011;57850;52.922;6.256;2023-06-22T04:00:30;17.45;;;15.77;;
12467;SDS011;57850;52.922;6.256;2023-06-22T04:02:57;17.27;;;15.55;;
12467;SDS011;57850;52.922;6.256;2023-06-22T04:05:25;18.45;;;16.50;;
12467;SDS011;57850;52.922;6.256;2023-06-22T04:07:52;21.00;;;17.23;;
12467;SDS011;57850;52.922;6.256;2023-06-22T04:10:18;16.85;;;15.13;;
12467;SDS011;57850;52.922;6.256;2023-06-22T04:12:45;18.63;;;15.90;;
12467;SDS011;57850;52.922;6.256;2023-06-22T04:15:11;17.95;;;16.10;;
12467;SDS011;57850;52.922;6.256;2023-06-22T04:17:38;18.42;;;16.45;;
12467;SDS011;57850;52.922;6.256;2023-06-22T04:20:05;20.63;;;18.42;;
12467;SDS011;57850;52.922;6.256;2023-06-22T04:22:34;26.08;;;22.13;;
12467;SDS011;57850;52.922;6.256;2023-06-22T04:25:01;26.77;;;23.77;;
12467;SDS011;57850;52.922;6.256;2023-06-22T04:27:27;27.85;;;24.85;;
12467;SDS011;57850;52.922;6.256;2023-06-22T04:29:54;27.85;;;23.67;;
12467;SDS011;57850;52.922;6.256;2023-06-22T04:32:20;26.70;;;23.73;;
12467;SDS011;57850;52.922;6.256;2023-06-22T04:34:47;27.00;;;23.83;;
12467;SDS011;57850;52.922;6.256;2023-06-22T04:37:14;27.08;;;24.30;;
12467;SDS011;57850;52.922;6.256;2023-06-22T04:39:42;27.52;;;24.30;;
12467;SDS011;57850;52.922;6.256;2023-06-22T04:42:09;26.75;;;23.85;;
12467;SDS011;57850;52.922;6.256;2023-06-22T04:44:35;26.35;;;23.55;;
12467;SDS011;57850;52.922;6.256;2023-06-22T04:47:02;27.40;;;24.15;;
12467;SDS011;57850;52.922;6.256;2023-06-22T04:49:33;27.65;;;24.17;;
12467;SDS011;57850;52.922;6.256;2023-06-22T04:52:02;26.33;;;23.58;;
12467;SDS011;57850;52.922;6.256;2023-06-22T04:54:30;29.48;;;26.38;;
12467;SDS011;57850;52.922;6.256;2023-06-22T04:56:59;29.17;;;26.02;;
12467;SDS011;57850;52.922;6.256;2023-06-22T04:59:26;30.50;;;27.13;;
12467;SDS011;57850;52.922;6.256;2023-06-22T05:01:54;29.45;;;26.25;;
12467;SDS011;57850;52.922;6.256;2023-06-22T05:04:21;29.35;;;26.15;;
12467;SDS011;57850;52.922;6.256;2023-06-22T05:06:49;31.98;;;26.20;;
12467;SDS011;57850;52.922;6.256;2023-06-22T05:09:15;32.13;;;26.95;;
12467;SDS011;57850;52.922;6.256;2023-06-22T05:11:42;31.08;;;26.63;;
12467;SDS011;57850;52.922;6.256;2023-06-22T05:14:10;33.17;;;28.02;;
12467;SDS011;57850;52.922;6.256;2023-06-22T05:16:37;33.92;;;28.92;;
12467;SDS011;57850;52.922;6.256;2023-06-22T05:19:04;36.28;;;30.67;;
12467;SDS011;57850;52.922;6.256;2023-06-22T05:21:31;37.85;;;30.92;;
12467;SDS011;57850;52.922;6.256;2023-06-22T05:23:58;36.17;;;30.33;;
12467;SDS011;57850;52.922;6.256;2023-06-22T05:26:27;31.95;;;28.08;;
12467;SDS011;57850;52.922;6.256;2023-06-22T05:28:55;32.95;;;28.35;;
12467;SDS011;57850;52.922;6.256;2023-06-22T05:31:23;35.22;;;28.58;;
12467;SDS011;57850;52.922;6.256;2023-06-22T05:33:50;34.67;;;28.35;;
12467;SDS011;57850;52.922;6.256;2023-06-22T05:36:18;32.75;;;27.52;;
12467;SDS011;57850;52.922;6.256;2023-06-22T05:38:46;33.67;;;26.92;;
12467;SDS011;57850;52.922;6.256;2023-06-22T05:41:13;30.45;;;27.02;;
12467;SDS011;57850;52.922;6.256;2023-06-22T05:43:40;32.97;;;27.85;;
12467;SDS011;57850;52.922;6.256;2023-06-22T05:46:07;33.55;;;28.52;;
12467;SDS011;57850;52.922;6.256;2023-06-22T05:48:35;30.60;;;27.27;;
12467;SDS011;57850;52.922;6.256;2023-06-22T05:51:01;34.55;;;28.73;;
12467;SDS011;57850;52.922;6.256;2023-06-22T05:53:28;28.38;;;25.38;;
12467;SDS011;57850;52.922;6.256;2023-06-22T05:55:54;29.65;;;24.95;;
12467;SDS011;57850;52.922;6.256;2023-06-22T05:58:21;27.05;;;24.13;;
12467;SDS011;57850;52.922;6.256;2023-06-22T06:00:48;26.48;;;22.83;;
12467;SDS011;57850;52.922;6.256;2023-06-22T06:03:15;26.45;;;22.67;;
12467;SDS011;57850;52.922;6.256;2023-06-22T06:05:43;23.85;;;21.42;;
12467;SDS011;57850;52.922;6.256;2023-06-22T06:08:10;22.25;;;19.98;;
12467;SDS011;57850;52.922;6.256;2023-06-22T06:10:37;23.80;;;20.45;;
12467;SDS011;57850;52.922;6.256;2023-06-22T06:13:03;22.85;;;17.88;;
12467;SDS011;57850;52.922;6.256;2023-06-22T06:15:30;20.50;;;18.30;;
12467;SDS011;57850;52.922;6.256;2023-06-22T06:17:58;20.25;;;17.25;;
12467;SDS011;57850;52.922;6.256;2023-06-22T06:20:25;19.67;;;15.77;;
12467;SDS011;57850;52.922;6.256;2023-06-22T06:22:54;17.10;;;15.27;;
12467;SDS011;57850;52.922;6.256;2023-06-22T06:25:21;17.45;;;15.52;;
12467;SDS011;57850;52.922;6.256;2023-06-22T06:27:48;18.55;;;15.00;;
12467;SDS011;57850;52.922;6.256;2023-06-22T06:30:16;16.23;;;14.35;;
12467;SDS011;57850;52.922;6.256;2023-06-22T06:32:44;18.75;;;14.30;;
12467;SDS011;57850;52.922;6.256;2023-06-22T06:35:12;16.30;;;14.48;;
12467;SDS011;57850;52.922;6.256;2023-06-22T06:37:40;20.92;;;15.85;;
12467;SDS011;57850;52.922;6.256;2023-06-22T06:40:09;22.23;;;16.83;;
12467;SDS011;57850;52.922;6.256;2023-06-22T06:42:37;17.65;;;14.65;;
12467;SDS011;57850;52.922;6.256;2023-06-22T06:45:06;18.83;;;14.90;;
12467;SDS011;57850;52.922;6.256;2023-06-22T06:47:33;21.45;;;16.20;;
12467;SDS011;57850;52.922;6.256;2023-06-22T06:49:59;15.57;;;13.98;;
12467;SDS011;57850;52.922;6.256;2023-06-22T06:52:26;19.05;;;14.48;;
12467;SDS011;57850;52.922;6.256;2023-06-22T06:54:52;16.08;;;13.75;;
12467;SDS011;57850;52.922;6.256;2023-06-22T06:57:20;20.67;;;14.38;;
12467;SDS011;57850;52.922;6.256;2023-06-22T06:59:48;17.85;;;13.07;;
12467;SDS011;57850;52.922;6.256;2023-06-22T07:02:15;13.00;;;10.55;;
12467;SDS011;57850;52.922;6.256;2023-06-22T07:04:42;13.02;;;11.13;;
12467;SDS011;57850;52.922;6.256;2023-06-22T07:07:08;13.43;;;11.05;;
12467;SDS011;57850;52.922;6.256;2023-06-22T07:09:35;11.98;;;9.65;;
12467;SDS011;57850;52.922;6.256;2023-06-22T07:12:01;13.32;;;10.65;;
12467;SDS011;57850;52.922;6.256;2023-06-22T07:14:29;12.05;;;10.05;;
12467;SDS011;57850;52.922;6.256;2023-06-22T07:16:56;15.05;;;10.02;;
12467;SDS011;57850;52.922;6.256;2023-06-22T07:19:26;11.68;;;9.18;;
12467;SDS011;57850;52.922;6.256;2023-06-22T07:21:53;12.02;;;10.30;;
12467;SDS011;57850;52.922;6.256;2023-06-22T07:24:20;13.85;;;10.52;;
12467;SDS011;57850;52.922;6.256;2023-06-22T07:26:47;17.15;;;11.85;;
12467;SDS011;57850;52.922;6.256;2023-06-22T07:29:15;12.65;;;11.13;;
12467;SDS011;57850;52.922;6.256;2023-06-22T07:31:43;13.27;;;11.85;;
12467;SDS011;57850;52.922;6.256;2023-06-22T07:34:10;16.17;;;11.82;;
12467;SDS011;57850;52.922;6.256;2023-06-22T07:36:36;11.35;;;10.18;;
12467;SDS011;57850;52.922;6.256;2023-06-22T07:39:03;14.15;;;11.25;;
12467;SDS011;57850;52.922;6.256;2023-06-22T07:41:29;15.48;;;12.00;;
12467;SDS011;57850;52.922;6.256;2023-06-22T07:43:56;15.93;;;11.68;;
12467;SDS011;57850;52.922;6.256;2023-06-22T07:46:23;13.05;;;11.63;;
12467;SDS011;57850;52.922;6.256;2023-06-22T07:48:51;13.80;;;12.35;;
12467;SDS011;57850;52.922;6.256;2023-06-22T07:51:18;15.05;;;11.60;;
12467;SDS011;57850;52.922;6.256;2023-06-22T07:53:44;14.38;;;11.93;;
12467;SDS011;57850;52.922;6.256;2023-06-22T07:56:11;13.68;;;11.90;;
12467;SDS011;57850;52.922;6.256;2023-06-22T07:58:38;12.95;;;11.55;;
12467;SDS011;57850;52.922;6.256;2023-06-22T08:01:04;12.85;;;11.52;;
12467;SDS011;57850;52.922;6.256;2023-06-22T08:03:31;12.38;;;10.13;;
12467;SDS011;57850;52.922;6.256;2023-06-22T08:05:59;11.70;;;10.15;;
12467;SDS011;57850;52.922;6.256;2023-06-22T08:08:25;13.77;;;10.93;;
12467;SDS011;57850;52.922;6.256;2023-06-22T08:10:52;13.95;;;10.60;;
12467;SDS011;57850;52.922;6.256;2023-06-22T08:13:19;17.95;;;11.60;;
12467;SDS011;57850;52.922;6.256;2023-06-22T08:15:45;10.48;;;9.35;;
12467;SDS011;57850;52.922;6.256;2023-06-22T08:18:12;13.93;;;10.48;;
12467;SDS011;57850;52.922;6.256;2023-06-22T08:20:38;13.70;;;11.35;;
12467;SDS011;57850;52.922;6.256;2023-06-22T08:23:06;13.15;;;10.13;;
12467;SDS011;57850;52.922;6.256;2023-06-22T08:25:33;13.05;;;10.27;;
12467;SDS011;57850;52.922;6.256;2023-06-22T08:28:00;12.25;;;8.90;;
12467;SDS011;57850;52.922;6.256;2023-06-22T08:30:27;12.35;;;8.82;;
12467;SDS011;57850;52.922;6.256;2023-06-22T08:32:54;13.27;;;9.35;;
12467;SDS011;57850;52.922;6.256;2023-06-22T08:35:21;12.35;;;10.35;;
12467;SDS011;57850;52.922;6.256;2023-06-22T08:37:48;10.63;;;8.90;;
12467;SDS011;57850;52.922;6.256;2023-06-22T08:40:19;13.07;;;7.93;;
12467;SDS011;57850;52.922;6.256;2023-06-22T08:42:46;11.95;;;9.40;;
12467;SDS011;57850;52.922;6.256;2023-06-22T08:45:13;10.65;;;9.40;;
12467;SDS011;57850;52.922;6.256;2023-06-22T08:47:40;11.38;;;8.68;;
12467;SDS011;57850;52.922;6.256;2023-06-22T08:50:08;9.98;;;8.88;;
12467;SDS011;57850;52.922;6.256;2023-06-22T08:52:35;11.73;;;8.02;;
12467;SDS011;57850;52.922;6.256;2023-06-22T08:55:03;9.38;;;7.97;;
12467;SDS011;57850;52.922;6.256;2023-06-22T08:57:31;8.93;;;7.55;;
12467;SDS011;57850;52.922;6.256;2023-06-22T08:59:58;10.52;;;8.07;;
12467;SDS011;57850;52.922;6.256;2023-06-22T09:02:24;12.07;;;8.15;;
12467;SDS011;57850;52.922;6.256;2023-06-22T09:04:51;9.70;;;7.07;;
12467;SDS011;57850;52.922;6.256;2023-06-22T09:07:20;9.80;;;7.88;;
12467;SDS011;57850;52.922;6.256;2023-06-22T09:09:49;8.20;;;7.20;;
12467;SDS011;57850;52.922;6.256;2023-06-22T09:12:15;11.15;;;7.63;;
12467;SDS011;57850;52.922;6.256;2023-06-22T09:14:43;10.50;;;8.18;;
12467;SDS011;57850;52.922;6.256;2023-06-22T09:17:10;9.30;;;8.00;;
12467;SDS011;57850;52.922;6.256;2023-06-22T09:19:38;10.05;;;8.02;;
12467;SDS011;57850;52.922;6.256;2023-06-22T09:22:05;9.50;;;7.47;;
12467;SDS011;57850;52.922;6.256;2023-06-22T09:24:32;12.40;;;7.47;;
12467;SDS011;57850;52.922;6.256;2023-06-22T09:26:58;8.88;;;6.50;;
12467;SDS011;57850;52.922;6.256;2023-06-22T09:29:25;7.72;;;6.78;;
12467;SDS011;57850;52.922;6.256;2023-06-22T09:31:53;8.27;;;6.88;;
12467;SDS011;57850;52.922;6.256;2023-06-22T09:34:20;7.68;;;6.72;;
12467;SDS011;57850;52.922;6.256;2023-06-22T09:36:47;10.50;;;7.03;;
12467;SDS011;57850;52.922;6.256;2023-06-22T09:39:14;8.05;;;6.88;;
12467;SDS011;57850;52.922;6.256;2023-06-22T09:41:40;8.73;;;7.25;;
12467;SDS011;57850;52.922;6.256;2023-06-22T09:44:07;9.13;;;6.97;;
12467;SDS011;57850;52.922;6.256;2023-06-22T09:46:33;9.13;;;7.43;;
12467;SDS011;57850;52.922;6.256;2023-06-22T09:49:01;7.53;;;6.60;;
12467;SDS011;57850;52.922;6.256;2023-06-22T09:51:28;8.52;;;7.03;;
12467;SDS011;57850;52.922;6.256;2023-06-22T09:53:54;8.43;;;5.45;;
12467;SDS011;57850;52.922;6.256;2023-06-22T09:56:21;7.93;;;6.30;;
12467;SDS011;57850;52.922;6.256;2023-06-22T09:58:47;6.97;;;6.03;;
12467;SDS011;57850;52.922;6.256;2023-06-22T10:01:17;6.85;;;6.18;;
12467;SDS011;57850;52.922;6.256;2023-06-22T10:03:45;9.18;;;6.70;;
12467;SDS011;57850;52.922;6.256;2023-06-22T10:06:13;8.52;;;6.97;;
12467;SDS011;57850;52.922;6.256;2023-06-22T10:08:40;7.22;;;6.00;;
12467;SDS011;57850;52.922;6.256;2023-06-22T10:11:07;7.45;;;6.68;;
12467;SDS011;57850;52.922;6.256;2023-06-22T10:13:33;7.03;;;6.32;;
12467;SDS011;57850;52.922;6.256;2023-06-22T10:16:00;8.63;;;5.85;;
12467;SDS011;57850;52.922;6.256;2023-06-22T10:18:26;8.10;;;6.63;;
12467;SDS011;57850;52.922;6.256;2023-06-22T10:20:53;11.32;;;6.78;;
12467;SDS011;57850;52.922;6.256;2023-06-22T10:23:21;7.00;;;6.07;;
12467;SDS011;57850;52.922;6.256;2023-06-22T10:25:48;7.05;;;5.72;;
12467;SDS011;57850;52.922;6.256;2023-06-22T10:28:15;7.90;;;6.55;;
12467;SDS011;57850;52.922;6.256;2023-06-22T10:30:42;7.15;;;5.90;;
12467;SDS011;57850;52.922;6.256;2023-06-22T10:33:09;7.25;;;5.68;;
12467;SDS011;57850;52.922;6.256;2023-06-22T10:35:36;7.05;;;5.85;;
12467;SDS011;57850;52.922;6.256;2023-06-22T10:38:04;6.80;;;6.03;;
12467;SDS011;57850;52.922;6.256;2023-06-22T10:40:32;5.65;;;5.15;;
12467;SDS011;57850;52.922;6.256;2023-06-22T10:42:59;7.95;;;5.45;;
12467;SDS011;57850;52.922;6.256;2023-06-22T10:45:25;6.93;;;5.57;;
12467;SDS011;57850;52.922;6.256;2023-06-22T10:47:53;6.80;;;6.07;;
12467;SDS011;57850;52.922;6.256;2023-06-22T10:50:19;6.30;;;5.10;;
12467;SDS011;57850;52.922;6.256;2023-06-22T10:52:49;6.80;;;6.03;;
12467;SDS011;57850;52.922;6.256;2023-06-22T10:55:15;7.25;;;4.75;;
12467;SDS011;57850;52.922;6.256;2023-06-22T10:57:43;6.50;;;5.90;;
12467;SDS011;57850;52.922;6.256;2023-06-22T11:00:12;6.18;;;5.63;;
12467;SDS011;57850;52.922;6.256;2023-06-22T11:02:40;7.10;;;5.78;;
12467;SDS011;57850;52.922;6.256;2023-06-22T11:05:07;5.63;;;4.93;;
12467;SDS011;57850;52.922;6.256;2023-06-22T11:07:34;6.13;;;5.38;;
12467;SDS011;57850;52.922;6.256;2023-06-22T11:10:00;6.38;;;5.72;;
12467;SDS011;57850;52.922;6.256;2023-06-22T11:12:27;8.93;;;5.53;;
12467;SDS011;57850;52.922;6.256;2023-06-22T11:14:55;6.32;;;5.55;;
12467;SDS011;57850;52.922;6.256;2023-06-22T11:17:22;7.25;;;4.75;;
12467;SDS011;57850;52.922;6.256;2023-06-22T11:19:50;6.10;;;5.55;;
12467;SDS011;57850;52.922;6.256;2023-06-22T11:22:17;6.18;;;5.32;;
12467;SDS011;57850;52.922;6.256;2023-06-22T11:24:43;6.82;;;5.97;;
12467;SDS011;57850;52.922;6.256;2023-06-22T11:27:10;8.80;;;5.85;;
12467;SDS011;57850;52.922;6.256;2023-06-22T11:29:36;6.32;;;5.53;;
12467;SDS011;57850;52.922;6.256;2023-06-22T11:32:06;5.70;;;4.97;;
12467;SDS011;57850;52.922;6.256;2023-06-22T11:34:33;4.90;;;4.47;;
12467;SDS011;57850;52.922;6.256;2023-06-22T11:37:00;5.03;;;4.53;;
12467;SDS011;57850;52.922;6.256;2023-06-22T11:39:26;6.47;;;4.85;;
12467;SDS011;57850;52.922;6.256;2023-06-22T11:41:53;6.28;;;4.70;;
12467;SDS011;57850;52.922;6.256;2023-06-22T11:44:19;5.20;;;4.65;;
12467;SDS011;57850;52.922;6.256;2023-06-22T11:46:46;6.50;;;5.13;;
12467;SDS011;57850;52.922;6.256;2023-06-22T11:49:14;6.65;;;5.05;;
12467;SDS011;57850;52.922;6.256;2023-06-22T11:51:41;6.20;;;5.20;;
12467;SDS011;57850;52.922;6.256;2023-06-22T11:54:08;6.63;;;4.43;;
12467;SDS011;57850;52.922;6.256;2023-06-22T11:56:34;5.30;;;4.70;;
12467;SDS011;57850;52.922;6.256;2023-06-22T11:59:01;5.70;;;4.88;;
12467;SDS011;57850;52.922;6.256;2023-06-22T12:01:27;5.25;;;4.75;;
12467;SDS011;57850;52.922;6.256;2023-06-22T12:03:54;5.70;;;5.20;;
12467;SDS011;57850;52.922;6.256;2023-06-22T12:06:22;7.03;;;5.05;;
12467;SDS011;57850;52.922;6.256;2023-06-22T12:08:48;7.45;;;5.40;;
12467;SDS011;57850;52.922;6.256;2023-06-22T12:11:15;5.30;;;4.57;;
12467;SDS011;57850;52.922;6.256;2023-06-22T12:13:42;4.38;;;3.97;;
12467;SDS011;57850;52.922;6.256;2023-06-22T12:16:08;7.18;;;4.45;;
12467;SDS011;57850;52.922;6.256;2023-06-22T12:18:35;8.18;;;4.40;;
12467;SDS011;57850;52.922;6.256;2023-06-22T12:21:02;5.55;;;4.40;;
12467;SDS011;57850;52.922;6.256;2023-06-22T12:23:30;5.55;;;5.05;;
12467;SDS011;57850;52.922;6.256;2023-06-22T12:25:56;7.32;;;5.28;;
12467;SDS011;57850;52.922;6.256;2023-06-22T12:28:24;6.97;;;4.90;;
12467;SDS011;57850;52.922;6.256;2023-06-22T12:30:51;6.47;;;5.13;;
12467;SDS011;57850;52.922;6.256;2023-06-22T12:33:17;5.65;;;4.50;;
12467;SDS011;57850;52.922;6.256;2023-06-22T12:35:44;5.70;;;5.15;;
12467;SDS011;57850;52.922;6.256;2023-06-22T12:38:13;4.95;;;4.43;;
12467;SDS011;57850;52.922;6.256;2023-06-22T12:40:42;11.30;;;5.00;;
12467;SDS011;57850;52.922;6.256;2023-06-22T12:43:08;4.40;;;3.97;;
12467;SDS011;57850;52.922;6.256;2023-06-22T12:45:35;5.10;;;4.70;;
12467;SDS011;57850;52.922;6.256;2023-06-22T12:48:01;7.97;;;5.28;;
12467;SDS011;57850;52.922;6.256;2023-06-22T12:50:28;5.70;;;4.30;;
12467;SDS011;57850;52.922;6.256;2023-06-22T12:52:54;6.32;;;4.80;;
12467;SDS011;57850;52.922;6.256;2023-06-22T12:55:21;7.80;;;4.68;;
12467;SDS011;57850;52.922;6.256;2023-06-22T12:57:49;7.28;;;4.93;;
12467;SDS011;57850;52.922;6.256;2023-06-22T13:00:16;5.00;;;4.50;;
12467;SDS011;57850;52.922;6.256;2023-06-22T13:02:43;5.32;;;4.75;;
12467;SDS011;57850;52.922;6.256;2023-06-22T13:05:10;5.63;;;4.78;;
12467;SDS011;57850;52.922;6.256;2023-06-22T13:07:36;5.32;;;4.82;;
12467;SDS011;57850;52.922;6.256;2023-06-22T13:10:03;5.68;;;5.13;;
12467;SDS011;57850;52.922;6.256;2023-06-22T13:12:30;5.30;;;4.80;;
12467;SDS011;57850;52.922;6.256;2023-06-22T13:14:58;6.03;;;4.75;;
12467;SDS011;57850;52.922;6.256;2023-06-22T13:17:25;5.60;;;5.10;;
12467;SDS011;57850;52.922;6.256;2023-06-22T13:19:52;7.15;;;4.90;;
12467;SDS011;57850;52.922;6.256;2023-06-22T13:22:28;8.98;;;5.15;;
12467;SDS011;57850;52.922;6.256;2023-06-22T13:24:56;5.57;;;4.57;;
12467;SDS011;57850;52.922;6.256;2023-06-22T13:27:23;5.32;;;4.55;;
12467;SDS011;57850;52.922;6.256;2023-06-22T13:29:50;5.40;;;4.88;;
12467;SDS011;57850;52.922;6.256;2023-06-22T13:32:19;5.28;;;4.75;;
12467;SDS011;57850;52.922;6.256;2023-06-22T13:34:45;4.35;;;3.90;;
12467;SDS011;57850;52.922;6.256;2023-06-22T13:37:12;5.78;;;4.85;;
12467;SDS011;57850;52.922;6.256;2023-06-22T13:39:38;9.02;;;4.70;;
12467;SDS011;57850;52.922;6.256;2023-06-22T13:42:05;5.05;;;4.32;;
12467;SDS011;57850;52.922;6.256;2023-06-22T13:44:32;6.25;;;4.80;;
12467;SDS011;57850;52.922;6.256;2023-06-22T13:46:59;7.85;;;4.50;;
12467;SDS011;57850;52.922;6.256;2023-06-22T13:49:27;5.97;;;4.57;;
12467;SDS011;57850;52.922;6.256;2023-06-22T13:51:54;5.43;;;4.68;;
12467;SDS011;57850;52.922;6.256;2023-06-22T13:54:22;9.25;;;4.80;;
12467;SDS011;57850;52.922;6.256;2023-06-22T13:56:48;7.25;;;4.35;;
12467;SDS011;57850;52.922;6.256;2023-06-22T13:59:15;5.35;;;4.60;;
12467;SDS011;57850;52.922;6.256;2023-06-22T14:01:41;11.07;;;5.15;;
12467;SDS011;57850;52.922;6.256;2023-06-22T14:04:08;7.80;;;5.55;;
12467;SDS011;57850;52.922;6.256;2023-06-22T14:06:36;5.97;;;5.20;;
12467;SDS011;57850;52.922;6.256;2023-06-22T14:09:04;7.03;;;5.82;;
12467;SDS011;57850;52.922;6.256;2023-06-22T14:11:30;9.27;;;5.68;;
12467;SDS011;57850;52.922;6.256;2023-06-22T14:13:57;5.97;;;5.40;;
12467;SDS011;57850;52.922;6.256;2023-06-22T14:16:23;7.32;;;5.85;;
12467;SDS011;57850;52.922;6.256;2023-06-22T14:18:50;8.48;;;5.78;;
12467;SDS011;57850;52.922;6.256;2023-06-22T14:21:16;9.75;;;6.40;;
12467;SDS011;57850;52.922;6.256;2023-06-22T14:23:45;10.68;;;6.22;;
12467;SDS011;57850;52.922;6.256;2023-06-22T14:26:14;9.38;;;6.63;;
12467;SDS011;57850;52.922;6.256;2023-06-22T14:28:42;9.70;;;6.78;;
12467;SDS011;57850;52.922;6.256;2023-06-22T14:31:12;9.13;;;5.80;;